This is the latest recevied weather packets stored in our database for station/object KG5TTF. If no packets are shown the sender has not sent any weather packets the latest 10 day(s).
| Time | Temp. | Humidity | Pressure | Rain* | Wind** | Luminosity | Snow |
|---|---|---|---|---|---|---|---|
| 1777888166 | 9.44° C | 39% | 1015.4 hPa | 0 mm | - | 0 W/m² | - |
| 1777887863 | 9.44° C | 39% | 1015.5 hPa | 0 mm | - | 0 W/m² | - |
| 1777887560 | 9.44° C | 39% | 1015.5 hPa | 0 mm | - | 0 W/m² | - |
| 1777887255 | 9.44° C | 39% | 1015.3 hPa | 0 mm | - | 0 W/m² | - |
| 1777886952 | 9.44° C | 39% | 1015.4 hPa | 0 mm | - | 0 W/m² | - |
| 1777886648 | 9.44° C | 40% | 1015.7 hPa | 0 mm | - | 0 W/m² | - |
| 1777886345 | 10° C | 38% | 1015.5 hPa | 0 mm | - | 0 W/m² | - |
| 1777886043 | 10° C | 38% | 1015.5 hPa | 0 mm | - | 0 W/m² | - |
| 1777885741 | 10.56° C | 37% | 1015.7 hPa | 0 mm | - | 0 W/m² | - |
| 1777885438 | 10.56° C | 36% | 1015.5 hPa | 0 mm | - | 0 W/m² | - |
| 1777885137 | 10.56° C | 36% | 1015.7 hPa | 0 mm | - | 0 W/m² | - |
| 1777884834 | 10.56° C | 36% | 1015.5 hPa | 0 mm | - | 0 W/m² | - |
| 1777884530 | 9.44° C | 39% | 1015.8 hPa | 0 mm | - | 0 W/m² | - |
| 1777884227 | 8.33° C | 43% | 1015.7 hPa | 0 mm | - | 0 W/m² | - |
| 1777883923 | 8.33° C | 45% | 1015.8 hPa | 0 mm | - | 0 W/m² | - |
| 1777883620 | 8.89° C | 45% | 1015.8 hPa | 0 mm | - | 0 W/m² | - |
| 1777883316 | 9.44° C | 42% | 1015.8 hPa | 0 mm | - | 0 W/m² | - |
| 1777883012 | 10° C | 39% | 1015.9 hPa | 0 mm | - | 0 W/m² | - |
| 1777882709 | 10° C | 41% | 1016 hPa | 0 mm | - | 0 W/m² | - |
| 1777882406 | 10° C | 39% | 1016 hPa | 0 mm | - | 0 W/m² | - |
| 1777882102 | 9.44° C | 40% | 1016.1 hPa | 0 mm | - | 0 W/m² | - |
| 1777881799 | 9.44° C | 41% | 1015.9 hPa | 0 mm | - | 0 W/m² | - |
| 1777881496 | 9.44° C | 41% | 1016 hPa | 0 mm | - | 0 W/m² | - |
| 1777881193 | 9.44° C | 41% | 1016.3 hPa | 0 mm | - | 0 W/m² | - |
| 1777880891 | 10° C | 40% | 1016 hPa | 0 mm | - | 0 W/m² | - |
* Rain latest hour (hover to see other rain measurements)
** Current wind speed in m/s (hover to see current wind gust speed)